createdAt,value
2022-08-22T00:00:34.269Z,100.00
2022-08-22T00:02:55.766Z,100.00
2022-08-22T00:03:18.638Z,100.00
2022-08-22T00:06:18.860Z,100.00
2022-08-22T00:08:55.785Z,100.00
2022-08-22T00:11:41.166Z,100.00
2022-08-22T00:14:40.376Z,100.00
2022-08-22T00:17:36.606Z,100.00
2022-08-22T00:20:04.383Z,100.00
2022-08-22T00:22:37.301Z,100.00
2022-08-22T00:25:07.722Z,100.00
2022-08-22T00:28:19.439Z,100.00
2022-08-22T00:30:56.739Z,100.00
2022-08-22T00:33:36.999Z,100.00
2022-08-22T00:36:24.645Z,100.00
2022-08-22T00:39:10.535Z,100.00
2022-08-22T00:42:15.886Z,100.00
2022-08-22T00:44:56.735Z,100.00
2022-08-22T00:47:39.049Z,100.00
2022-08-22T00:50:44.384Z,100.00
2022-08-22T00:53:48.898Z,100.00
2022-08-22T00:56:37.547Z,100.00
2022-08-22T00:59:26.099Z,100.00
2022-08-22T01:01:56.354Z,100.00
2022-08-22T01:04:41.474Z,100.00
2022-08-22T01:07:20.564Z,100.00
2022-08-22T01:10:14.822Z,100.00
2022-08-22T01:12:57.687Z,100.00
2022-08-22T01:15:29.487Z,100.00
2022-08-22T01:18:27.538Z,100.00
2022-08-22T01:21:24.511Z,100.00
2022-08-22T01:24:10.373Z,100.00
2022-08-22T01:27:05.654Z,100.00
2022-08-22T01:30:01.182Z,100.00
2022-08-22T01:32:36.084Z,100.00
2022-08-22T01:35:28.297Z,100.00
2022-08-22T01:38:13.848Z,100.00
2022-08-22T01:41:03.639Z,100.00
2022-08-22T01:43:59.716Z,100.00
2022-08-22T01:46:45.323Z,100.00
2022-08-22T01:49:33.910Z,100.00
2022-08-22T01:52:29.794Z,100.00
2022-08-22T01:55:07.995Z,100.00
2022-08-22T01:57:54.627Z,100.00
2022-08-22T02:00:35.058Z,100.00
2022-08-22T02:03:03.489Z,100.00
2022-08-22T02:05:38.007Z,100.00
2022-08-22T02:08:23.151Z,100.00
2022-08-22T02:10:53.273Z,100.00
2022-08-22T02:13:44.080Z,100.00
2022-08-22T02:16:24.673Z,100.00
2022-08-22T02:19:19.313Z,100.00
2022-08-22T02:21:53.653Z,100.00
2022-08-22T02:24:24.696Z,100.00
2022-08-22T02:27:04.444Z,100.00
2022-08-22T02:29:35.867Z,100.00
2022-08-22T02:32:06.986Z,100.00
2022-08-22T02:34:48.766Z,100.00
2022-08-22T02:37:39.696Z,100.00
2022-08-22T02:40:34.946Z,100.00
2022-08-22T02:43:25.657Z,100.00
2022-08-22T02:46:13.716Z,100.00
2022-08-22T02:48:59.167Z,100.00
2022-08-22T02:51:50.423Z,100.00
2022-08-22T02:54:26.381Z,100.00
2022-08-22T02:57:09.582Z,100.00
2022-08-22T03:00:31.527Z,100.00
2022-08-22T03:03:15.030Z,100.00
2022-08-22T03:05:48.610Z,100.00
2022-08-22T03:08:24.917Z,100.00
2022-08-22T03:11:13.939Z,100.00
2022-08-22T03:14:18.378Z,100.00
2022-08-22T03:17:08.854Z,100.00
2022-08-22T03:19:51.110Z,100.00
2022-08-22T03:22:25.634Z,100.00
2022-08-22T03:25:02.283Z,100.00
2022-08-22T03:27:41.487Z,100.00
2022-08-22T03:30:18.553Z,100.00
2022-08-22T03:33:14.631Z,100.00
2022-08-22T03:35:42.352Z,100.00
2022-08-22T03:38:30.149Z,100.00
2022-08-22T03:41:27.711Z,100.00
2022-08-22T03:44:13.360Z,100.00
2022-08-22T03:46:55.891Z,100.00
2022-08-22T03:49:49.521Z,100.00
2022-08-22T03:53:05.093Z,100.00
2022-08-22T03:55:47.919Z,100.00
2022-08-22T03:58:46.294Z,100.00
2022-08-22T04:01:29.690Z,100.00
2022-08-22T04:04:15.358Z,100.00
2022-08-22T04:07:32.108Z,100.00
2022-08-22T04:10:48.644Z,100.00
2022-08-22T04:13:41.085Z,100.00
2022-08-22T04:16:54.399Z,100.00
2022-08-22T04:19:40.492Z,100.00
2022-08-22T04:22:18.510Z,100.00
2022-08-22T04:24:51.966Z,100.00
2022-08-22T04:27:29.741Z,100.00
2022-08-22T04:30:25.642Z,100.00
2022-08-22T04:33:02.352Z,100.00
2022-08-22T04:35:54.042Z,100.00
2022-08-22T04:38:47.990Z,100.00
2022-08-22T04:41:24.676Z,100.00
2022-08-22T04:44:02.026Z,100.00
2022-08-22T04:46:39.607Z,100.00
2022-08-22T04:49:32.922Z,100.00
2022-08-22T04:52:23.087Z,100.00
2022-08-22T04:55:02.692Z,100.00
2022-08-22T04:57:57.367Z,100.00
2022-08-22T05:00:49.622Z,100.00
2022-08-22T05:03:22.169Z,100.00
2022-08-22T05:05:51.709Z,100.00
2022-08-22T05:08:25.615Z,100.00
2022-08-22T05:10:54.746Z,100.00
2022-08-22T05:13:37.830Z,100.00
2022-08-22T05:16:13.071Z,100.00
2022-08-22T05:18:49.324Z,100.00
2022-08-22T05:21:36.417Z,100.00
2022-08-22T05:24:09.680Z,100.00
2022-08-22T05:26:50.757Z,100.00
2022-08-22T05:29:23.425Z,100.00
2022-08-22T05:31:54.774Z,100.00
2022-08-22T05:34:28.840Z,100.00
2022-08-22T05:37:10.350Z,100.00
2022-08-22T05:39:41.212Z,100.00
2022-08-22T05:42:16.295Z,100.00
2022-08-22T05:44:43.608Z,100.00
2022-08-22T05:47:32.063Z,100.00
2022-08-22T05:50:24.145Z,100.00
2022-08-22T05:53:10.971Z,100.00
2022-08-22T05:56:04.304Z,100.00
2022-08-22T05:58:43.300Z,100.00
2022-08-22T06:01:17.065Z,100.00
2022-08-22T06:04:04.804Z,100.00
2022-08-22T06:06:38.398Z,100.00
2022-08-22T06:09:24.215Z,100.00
2022-08-22T06:12:06.353Z,100.00
2022-08-22T06:15:12.262Z,100.00
2022-08-22T06:17:48.201Z,100.00
2022-08-22T06:20:28.613Z,100.00
2022-08-22T06:23:01.015Z,100.00
2022-08-22T06:25:32.986Z,100.00
2022-08-22T06:28:08.832Z,100.00
2022-08-22T06:30:39.723Z,100.00
2022-08-22T06:33:12.611Z,100.00
2022-08-22T06:36:28.698Z,100.00
2022-08-22T06:39:17.802Z,100.00
2022-08-22T06:42:16.674Z,100.00
2022-08-22T06:44:51.518Z,100.00
2022-08-22T06:47:33.322Z,100.00
2022-08-22T06:50:13.539Z,100.00
2022-08-22T06:52:56.661Z,100.00
2022-08-22T06:55:27.655Z,100.00
2022-08-22T06:57:58.996Z,100.00
2022-08-22T07:00:27.916Z,100.00
2022-08-22T07:03:00.637Z,100.00
2022-08-22T07:05:35.062Z,100.00
2022-08-22T07:08:08.600Z,100.00
2022-08-22T07:10:37.315Z,100.00
2022-08-22T07:13:08.449Z,100.00
2022-08-22T07:15:43.265Z,100.00
2022-08-22T07:18:22.098Z,100.00
2022-08-22T07:20:55.329Z,100.00
2022-08-22T07:23:35.628Z,100.00
2022-08-22T07:26:09.190Z,100.00
2022-08-22T07:28:58.648Z,100.00
2022-08-22T07:32:04.353Z,100.00
2022-08-22T07:34:40.389Z,100.00
2022-08-22T07:37:18.504Z,99.91
2022-08-22T07:40:17.235Z,99.40
2022-08-22T07:42:52.092Z,99.36
2022-08-22T07:45:49.577Z,98.94
2022-08-22T07:48:26.296Z,98.05
2022-08-22T07:51:05.852Z,94.42
2022-08-22T07:53:42.336Z,93.16
2022-08-22T07:56:21.760Z,93.10
2022-08-22T07:58:55.671Z,91.83
2022-08-22T08:01:25.647Z,90.64
2022-08-22T08:04:02.394Z,90.39
2022-08-22T08:06:32.078Z,90.51
2022-08-22T08:08:59.801Z,90.44
2022-08-22T08:11:32.751Z,88.76
2022-08-22T08:14:05.594Z,89.58
2022-08-22T08:16:47.894Z,90.34
2022-08-22T08:19:17.692Z,90.56
2022-08-22T08:21:54.076Z,89.71
2022-08-22T08:24:41.357Z,90.26
2022-08-22T08:27:44.151Z,90.88
2022-08-22T08:30:16.424Z,88.71
2022-08-22T08:32:49.494Z,89.18
2022-08-22T08:35:30.056Z,87.71
2022-08-22T08:38:18.233Z,89.09
2022-08-22T08:41:04.449Z,90.54
2022-08-22T08:43:53.307Z,89.84
2022-08-22T08:46:42.558Z,87.54
2022-08-22T08:49:35.931Z,88.21
2022-08-22T08:52:15.680Z,88.60
2022-08-22T08:54:57.621Z,87.32
2022-08-22T08:57:35.083Z,86.82
2022-08-22T09:00:46.033Z,84.59
2022-08-22T09:03:24.023Z,84.43
2022-08-22T09:06:31.290Z,83.58
2022-08-22T09:09:05.152Z,86.46
2022-08-22T09:12:00.560Z,85.56
2022-08-22T09:15:14.094Z,83.62
2022-08-22T09:18:12.924Z,81.86
2022-08-22T09:21:06.906Z,82.11
2022-08-22T09:23:58.899Z,82.83
2022-08-22T09:27:03.292Z,82.23
2022-08-22T09:30:04.847Z,80.30
2022-08-22T09:32:35.798Z,80.44
2022-08-22T09:35:40.482Z,79.38
2022-08-22T09:38:25.127Z,78.51
2022-08-22T09:41:07.693Z,80.15
2022-08-22T09:43:41.855Z,78.58
2022-08-22T09:46:29.445Z,78.68
2022-08-22T09:49:05.593Z,79.54
2022-08-22T09:52:15.564Z,80.25
2022-08-22T09:55:07.943Z,75.92
2022-08-22T09:57:51.751Z,75.00
2022-08-22T10:00:55.375Z,73.55
2022-08-22T10:03:50.755Z,72.78
2022-08-22T10:06:28.560Z,73.74
2022-08-22T10:09:08.844Z,74.54
2022-08-22T10:11:45.507Z,75.24
2022-08-22T10:14:22.290Z,74.98
2022-08-22T10:17:05.583Z,72.40
2022-08-22T10:19:46.941Z,70.01
2022-08-22T10:22:30.268Z,71.59
2022-08-22T10:25:13.434Z,71.15
2022-08-22T10:27:40.446Z,68.84
2022-08-22T10:30:13.719Z,70.05
2022-08-22T10:33:12.176Z,69.71
2022-08-22T10:36:19.982Z,69.62
2022-08-22T10:38:58.767Z,69.34
2022-08-22T10:42:04.059Z,70.46
2022-08-22T10:45:10.242Z,69.33
2022-08-22T10:48:03.415Z,68.92
2022-08-22T10:50:48.207Z,69.49
2022-08-22T10:53:30.397Z,69.50
2022-08-22T10:56:09.910Z,70.41
2022-08-22T10:59:04.889Z,70.63
2022-08-22T11:01:42.038Z,70.04
2022-08-22T11:04:34.801Z,69.59
2022-08-22T11:07:36.384Z,68.98
2022-08-22T11:10:21.544Z,68.01
2022-08-22T11:12:59.473Z,67.95
2022-08-22T11:16:04.571Z,69.21
2022-08-22T11:18:35.030Z,68.02
2022-08-22T11:21:15.055Z,67.45
2022-08-22T11:23:51.802Z,67.41
2022-08-22T11:26:46.811Z,66.54
2022-08-22T11:29:39.020Z,67.13
2022-08-22T11:32:30.927Z,66.18
2022-08-22T11:35:18.241Z,65.90
2022-08-22T11:38:03.012Z,65.33
2022-08-22T11:40:43.178Z,66.31
2022-08-22T11:43:18.955Z,66.39
2022-08-22T11:45:52.272Z,68.51
2022-08-22T11:48:20.274Z,68.20
2022-08-22T11:51:16.355Z,64.78
2022-08-22T11:54:00.360Z,64.77
2022-08-22T11:56:35.537Z,65.81
2022-08-22T11:59:19.567Z,61.42
2022-08-22T12:01:59.814Z,61.94
2022-08-22T12:04:42.677Z,61.57
2022-08-22T12:07:18.484Z,61.66
2022-08-22T12:09:50.784Z,61.75
2022-08-22T12:12:23.701Z,60.98
2022-08-22T12:15:09.332Z,60.29
2022-08-22T12:17:51.012Z,61.71
2022-08-22T12:20:32.323Z,59.72
2022-08-22T12:23:38.019Z,57.50
2022-08-22T12:26:30.937Z,58.06
2022-08-22T12:29:20.222Z,59.40
2022-08-22T12:32:34.094Z,57.71
2022-08-22T12:35:20.030Z,57.52
2022-08-22T12:38:31.299Z,56.84
2022-08-22T12:41:28.116Z,55.58
2022-08-22T12:44:18.039Z,57.58
2022-08-22T12:47:04.448Z,56.70
2022-08-22T12:49:44.926Z,55.88
2022-08-22T12:52:52.411Z,57.81
2022-08-22T12:55:47.670Z,56.18
2022-08-22T12:58:39.741Z,55.22
2022-08-22T13:01:09.174Z,55.77
2022-08-22T13:03:47.295Z,55.90
2022-08-22T13:06:36.815Z,54.36
2022-08-22T13:09:18.761Z,54.00
2022-08-22T13:11:51.419Z,54.75
2022-08-22T13:14:25.961Z,54.55
2022-08-22T13:16:58.784Z,55.67
2022-08-22T13:19:32.466Z,54.79
2022-08-22T13:22:16.853Z,54.56
2022-08-22T13:24:52.423Z,55.01
2022-08-22T13:27:24.267Z,55.14
2022-08-22T13:30:02.217Z,54.64
2022-08-22T13:32:40.146Z,54.73
2022-08-22T13:35:24.621Z,54.82
2022-08-22T13:38:04.153Z,54.45
2022-08-22T13:40:34.335Z,53.90
2022-08-22T13:43:27.065Z,54.23
2022-08-22T13:45:58.181Z,54.79
2022-08-22T13:48:50.250Z,54.51
2022-08-22T13:51:57.258Z,54.05
2022-08-22T13:54:58.614Z,54.83
2022-08-22T13:57:51.701Z,54.48
2022-08-22T14:00:25.473Z,56.00
2022-08-22T14:03:07.997Z,54.78
2022-08-22T14:05:39.443Z,54.70
2022-08-22T14:08:13.233Z,55.34
2022-08-22T14:10:47.399Z,54.75
2022-08-22T14:13:25.534Z,54.18
2022-08-22T14:16:03.555Z,53.78
2022-08-22T14:18:36.650Z,55.55
2022-08-22T14:21:33.429Z,55.12
2022-08-22T14:24:18.937Z,54.81
2022-08-22T14:27:05.087Z,54.97
2022-08-22T14:29:55.146Z,55.98
2022-08-22T14:32:22.607Z,56.01
2022-08-22T14:35:01.442Z,54.93
2022-08-22T14:37:42.102Z,57.15
2022-08-22T14:40:14.540Z,59.25
2022-08-22T14:42:52.341Z,59.23
2022-08-22T14:45:30.974Z,59.24
2022-08-22T14:48:31.698Z,59.36
2022-08-22T14:51:10.211Z,59.75
2022-08-22T14:53:40.344Z,60.06
2022-08-22T14:56:13.598Z,60.02
2022-08-22T14:59:04.750Z,60.59
2022-08-22T15:01:53.160Z,60.65
2022-08-22T15:04:34.124Z,61.80
2022-08-22T15:07:02.613Z,62.56
2022-08-22T15:09:43.014Z,62.69
2022-08-22T15:12:28.202Z,62.89
2022-08-22T15:15:00.671Z,62.97
2022-08-22T15:17:35.426Z,63.68
2022-08-22T15:20:27.677Z,64.12
2022-08-22T15:23:23.049Z,64.31
2022-08-22T15:26:02.003Z,65.02
2022-08-22T15:28:52.714Z,64.76
2022-08-22T15:31:22.337Z,64.99
2022-08-22T15:33:51.428Z,64.76
2022-08-22T15:36:27.392Z,65.37
2022-08-22T15:39:16.347Z,65.34
2022-08-22T15:41:51.204Z,65.24
2022-08-22T15:44:32.712Z,64.92
2022-08-22T15:47:30.413Z,65.04
2022-08-22T15:50:05.483Z,66.09
2022-08-22T15:53:06.600Z,66.65
2022-08-22T15:55:37.456Z,66.80
2022-08-22T15:58:20.577Z,66.92
2022-08-22T16:01:18.944Z,67.41
2022-08-22T16:04:05.337Z,67.75
2022-08-22T16:07:03.004Z,67.86
2022-08-22T16:09:43.539Z,68.14
2022-08-22T16:12:35.430Z,68.54
2022-08-22T16:15:08.233Z,68.65
2022-08-22T16:17:43.066Z,68.90
2022-08-22T16:20:19.723Z,69.09
2022-08-22T16:22:56.907Z,69.29
2022-08-22T16:25:50.625Z,69.32
2022-08-22T16:28:56.220Z,69.47
2022-08-22T16:31:27.490Z,69.67
2022-08-22T16:33:59.270Z,69.58
2022-08-22T16:37:03.524Z,70.00
2022-08-22T16:39:36.718Z,70.35
2022-08-22T16:42:13.430Z,70.26
2022-08-22T16:44:50.413Z,70.57
2022-08-22T16:47:33.166Z,70.57
2022-08-22T16:50:18.586Z,71.05
2022-08-22T16:53:21.380Z,71.29
2022-08-22T16:56:31.759Z,71.70
2022-08-22T16:59:23.750Z,72.02
2022-08-22T17:02:21.795Z,72.80
2022-08-22T17:05:15.794Z,73.13
2022-08-22T17:08:05.290Z,73.58
2022-08-22T17:10:49.271Z,73.51
2022-08-22T17:13:30.231Z,73.63
2022-08-22T17:16:28.821Z,74.10
2022-08-22T17:19:05.331Z,74.55
2022-08-22T17:22:04.691Z,74.64
2022-08-22T17:24:36.612Z,74.79
2022-08-22T17:27:03.783Z,75.32
2022-08-22T17:29:55.230Z,75.57
2022-08-22T17:33:04.255Z,76.43
2022-08-22T17:36:26.344Z,76.87
2022-08-22T17:39:22.636Z,77.29
2022-08-22T17:41:53.454Z,77.70
2022-08-22T17:45:04.128Z,77.97
2022-08-22T17:47:41.402Z,78.14
2022-08-22T17:50:31.193Z,78.41
2022-08-22T17:53:33.689Z,78.53
2022-08-22T17:56:08.066Z,79.00
2022-08-22T17:59:04.831Z,78.65
2022-08-22T18:01:55.462Z,79.23
2022-08-22T18:04:33.787Z,79.00
2022-08-22T18:07:30.194Z,79.02
2022-08-22T18:10:22.363Z,79.76
2022-08-22T18:13:33.937Z,79.58
2022-08-22T18:16:09.523Z,79.41
2022-08-22T18:18:48.186Z,79.68
2022-08-22T18:21:29.540Z,80.23
2022-08-22T18:24:10.832Z,80.82
2022-08-22T18:27:03.047Z,81.34
2022-08-22T18:29:48.570Z,81.58
2022-08-22T18:32:26.959Z,81.86
2022-08-22T18:35:02.698Z,82.23
2022-08-22T18:37:30.974Z,82.42
2022-08-22T18:40:05.834Z,82.21
2022-08-22T18:42:44.933Z,82.60
2022-08-22T18:45:44.042Z,83.61
2022-08-22T18:48:49.505Z,83.92
2022-08-22T18:51:38.321Z,84.15
2022-08-22T18:54:07.031Z,84.14
2022-08-22T18:56:51.630Z,84.48
2022-08-22T18:59:33.912Z,85.07
2022-08-22T19:02:35.712Z,85.92
2022-08-22T19:05:26.871Z,86.13
2022-08-22T19:08:08.003Z,86.22
2022-08-22T19:11:03.193Z,85.82
2022-08-22T19:14:00.859Z,85.10
2022-08-22T19:16:43.172Z,84.74
2022-08-22T19:19:17.390Z,84.62
2022-08-22T19:22:19.726Z,84.63
2022-08-22T19:25:18.203Z,84.75
2022-08-22T19:28:11.749Z,85.17
2022-08-22T19:30:49.177Z,86.10
2022-08-22T19:33:34.521Z,86.79
2022-08-22T19:36:30.169Z,88.05
2022-08-22T19:39:25.452Z,88.92
2022-08-22T19:41:59.667Z,89.14
2022-08-22T19:44:26.830Z,89.80
2022-08-22T19:47:18.790Z,89.57
2022-08-22T19:49:58.714Z,90.15
2022-08-22T19:52:54.579Z,90.62
2022-08-22T19:55:43.382Z,91.11
2022-08-22T19:58:31.923Z,91.54
2022-08-22T20:01:29.575Z,91.90
2022-08-22T20:04:21.479Z,92.52
2022-08-22T20:07:02.467Z,91.88
2022-08-22T20:09:48.109Z,92.22
2022-08-22T20:12:58.074Z,92.80
2022-08-22T20:15:28.281Z,92.74
2022-08-22T20:21:11.942Z,92.73
2022-08-22T20:23:43.662Z,92.77
2022-08-22T20:26:17.486Z,93.05
2022-08-22T20:28:52.403Z,93.38
2022-08-22T20:31:27.159Z,93.72
2022-08-22T20:34:20.579Z,94.29
2022-08-22T20:37:04.290Z,94.77
2022-08-22T20:39:43.700Z,94.92
2022-08-22T20:42:15.579Z,93.75
2022-08-22T20:44:53.473Z,94.27
2022-08-22T20:47:26.842Z,94.02
2022-08-22T20:50:13.572Z,93.34
2022-08-22T20:52:51.797Z,93.27
2022-08-22T20:55:31.597Z,94.03
2022-08-22T20:58:06.202Z,94.43
2022-08-22T21:00:40.278Z,95.09
2022-08-22T21:03:41.577Z,94.47
2022-08-22T21:06:22.841Z,92.72
2022-08-22T21:09:31.526Z,92.27
2022-08-22T21:12:01.472Z,91.85
2022-08-22T21:14:39.975Z,91.46
2022-08-22T21:17:39.284Z,91.86
2022-08-22T21:20:21.428Z,93.46
2022-08-22T21:22:49.611Z,94.58
2022-08-22T21:25:17.075Z,94.95
2022-08-22T21:27:48.258Z,95.29
2022-08-22T21:30:21.233Z,96.20
2022-08-22T21:32:57.391Z,96.44
2022-08-22T21:35:33.351Z,96.92
2022-08-22T21:38:01.883Z,97.15
2022-08-22T21:40:39.588Z,98.38
2022-08-22T21:43:26.760Z,98.68
2022-08-22T21:45:54.061Z,98.62
2022-08-22T21:48:36.806Z,98.62
2022-08-22T21:51:26.425Z,98.50
2022-08-22T21:54:22.295Z,98.60
2022-08-22T21:57:14.669Z,98.74
2022-08-22T21:59:59.635Z,98.26
2022-08-22T22:02:39.626Z,97.62
2022-08-22T22:05:17.139Z,98.07
2022-08-22T22:07:46.734Z,98.40
2022-08-22T22:10:17.285Z,98.81
2022-08-22T22:12:46.981Z,97.01
2022-08-22T22:15:18.257Z,96.05
2022-08-22T22:17:46.209Z,97.09
2022-08-22T22:20:16.400Z,97.29
2022-08-22T22:22:46.459Z,97.71
2022-08-22T22:25:40.853Z,98.27
2022-08-22T22:28:21.938Z,99.51
2022-08-22T22:30:53.276Z,99.41
2022-08-22T22:33:27.504Z,98.01
2022-08-22T22:35:57.851Z,97.18
2022-08-22T22:38:25.626Z,97.68
2022-08-22T22:40:53.576Z,98.03
2022-08-22T22:43:21.402Z,98.90
2022-08-22T22:45:52.236Z,100.00
2022-08-22T22:48:24.033Z,100.00
2022-08-22T22:50:55.865Z,100.00
2022-08-22T22:53:40.309Z,100.00
2022-08-22T22:56:13.854Z,100.00
2022-08-22T22:58:42.305Z,100.00
2022-08-22T23:01:20.283Z,100.00
2022-08-22T23:03:48.468Z,100.00
2022-08-22T23:06:19.502Z,100.00
2022-08-22T23:08:48.551Z,100.00
2022-08-22T23:11:24.798Z,100.00
2022-08-22T23:13:53.241Z,100.00
2022-08-22T23:16:26.542Z,100.00
2022-08-22T23:18:54.320Z,100.00
2022-08-22T23:21:28.378Z,100.00
2022-08-22T23:23:59.862Z,100.00
2022-08-22T23:26:28.429Z,100.00
2022-08-22T23:28:56.625Z,100.00
2022-08-22T23:31:30.386Z,100.00
2022-08-22T23:34:02.328Z,100.00
2022-08-22T23:36:30.025Z,100.00
2022-08-22T23:38:58.710Z,100.00
2022-08-22T23:41:26.705Z,100.00
2022-08-22T23:43:55.691Z,100.00
2022-08-22T23:46:24.812Z,100.00
2022-08-22T23:48:52.448Z,100.00
2022-08-22T23:51:22.941Z,100.00
2022-08-22T23:53:54.795Z,100.00
2022-08-22T23:56:29.834Z,100.00
2022-08-22T23:58:59.333Z,100.00
